Time;durP1;ratioP1;P1;durP2;ratioP2;P2;SDS_P1;SDS_P2;PMS_P1;PMS_P2;Temp;Humidity;BMP_temperature;BMP_pressure;BME280_temperature;BME280_humidity;BME280_pressure;Samples;Min_cycle;Max_cycle;Signal;HPM_P1;HPM_P2
2022/05/20 00:00:00;;;;;;;0.00;0.00;;;19.60;99.90;;;;;;5044571;28;20218;-68
2022/05/20 00:02:27;;;;;;;0.00;0.00;;;19.60;99.90;;;;;;5035114;28;20211;-68
2022/05/20 00:04:54;;;;;;;0.00;0.00;;;19.50;99.90;;;;;;5039447;28;20196;-68
2022/05/20 00:07:21;;;;;;;0.00;0.00;;;19.60;99.90;;;;;;5042226;28;20587;-68
2022/05/20 00:09:48;;;;;;;0.00;0.00;;;19.50;99.90;;;;;;5043910;28;20228;-68
2022/05/20 00:12:15;;;;;;;0.00;0.00;;;19.50;99.90;;;;;;5046620;28;20258;-68
2022/05/20 00:14:43;;;;;;;0.00;0.00;;;19.40;99.90;;;;;;5045950;28;20199;-68
2022/05/20 00:17:10;;;;;;;0.00;0.00;;;19.50;99.90;;;;;;5047175;28;20201;-68
2022/05/20 00:19:37;;;;;;;0.00;0.00;;;19.40;99.90;;;;;;5045796;28;20211;-68
2022/05/20 00:22:06;;;;;;;0.00;0.00;;;19.40;99.90;;;;;;5048517;28;20199;-68
2022/05/20 00:24:33;;;;;;;0.00;0.00;;;19.30;99.90;;;;;;5045501;28;20199;-68
2022/05/20 00:27:00;;;;;;;0.00;0.00;;;19.30;99.90;;;;;;5043042;28;20301;-68
2022/05/20 00:29:27;;;;;;;0.00;0.00;;;19.00;99.90;;;;;;5046150;28;20246;-68
2022/05/20 00:31:55;;;;;;;0.00;0.00;;;19.20;99.90;;;;;;5045919;28;20214;-68
2022/05/20 00:34:22;;;;;;;0.00;0.00;;;19.20;99.90;;;;;;5044741;28;20328;-68
2022/05/20 00:36:50;;;;;;;0.00;0.00;;;19.20;99.90;;;;;;5044606;28;20208;-68
2022/05/20 00:39:17;;;;;;;0.00;0.00;;;19.20;99.90;;;;;;5045934;28;20246;-68
2022/05/20 00:41:43;;;;;;;0.00;0.00;;;19.10;99.90;;;;;;5046255;28;20227;-68
2022/05/20 00:44:10;;;;;;;0.00;0.00;;;19.20;99.90;;;;;;5045208;28;20214;-68
2022/05/20 00:46:37;;;;;;;0.00;0.00;;;19.10;99.90;;;;;;5038940;28;20230;-68
2022/05/20 00:49:09;;;;;;;0.00;0.00;;;19.10;99.90;;;;;;5042234;28;20282;-68
2022/05/20 00:51:40;;;;;;;0.00;0.00;;;19.10;99.90;;;;;;5046378;28;20206;-68
2022/05/20 00:54:14;;;;;;;0.00;0.00;;;19.00;99.90;;;;;;5046300;28;20217;-69
2022/05/20 00:56:45;;;;;;;0.00;0.00;;;19.00;99.90;;;;;;5041523;28;20203;-68
2022/05/20 00:59:18;;;;;;;0.00;0.00;;;19.00;99.90;;;;;;5045130;28;20214;-69
2022/05/20 01:01:47;;;;;;;0.00;0.00;;;18.90;99.90;;;;;;5043630;28;20257;-69
2022/05/20 01:04:17;;;;;;;0.00;0.00;;;18.90;99.90;;;;;;5041970;28;20222;-69
2022/05/20 01:06:44;;;;;;;0.00;0.00;;;18.90;99.90;;;;;;5040510;28;20207;-69
2022/05/20 01:09:12;;;;;;;0.00;0.00;;;18.90;99.90;;;;;;5043678;28;20219;-69
2022/05/20 01:11:40;;;;;;;0.00;0.00;;;18.80;99.90;;;;;;5045658;28;20250;-69
2022/05/20 01:14:10;;;;;;;0.00;0.00;;;18.80;99.90;;;;;;5045798;28;20207;-68
2022/05/20 01:16:38;;;;;;;0.00;0.00;;;18.80;99.90;;;;;;5043512;28;20202;-69
2022/05/20 01:19:10;;;;;;;0.00;0.00;;;18.80;99.90;;;;;;5074732;28;20220;-68
2022/05/20 01:21:39;;;;;;;0.00;0.00;;;18.80;99.90;;;;;;5044780;28;20203;-69
2022/05/20 01:24:07;;;;;;;0.00;0.00;;;18.70;99.90;;;;;;5050177;28;20282;-69
2022/05/20 01:26:34;;;;;;;0.00;0.00;;;18.70;99.90;;;;;;5043513;28;20282;-69
2022/05/20 01:29:01;;;;;;;0.00;0.00;;;18.70;99.90;;;;;;5045808;28;20210;-69
2022/05/20 01:31:28;;;;;;;0.00;0.00;;;18.60;99.90;;;;;;5041476;28;20211;-68
2022/05/20 01:33:55;;;;;;;0.00;0.00;;;18.60;99.90;;;;;;5045827;28;20207;-68
2022/05/20 01:36:25;;;;;;;0.00;0.00;;;18.60;99.90;;;;;;5041187;28;20294;-69
2022/05/20 01:38:53;;;;;;;0.00;0.00;;;18.60;99.90;;;;;;5043058;28;20237;-69
2022/05/20 01:41:25;;;;;;;0.00;0.00;;;18.60;99.90;;;;;;5043634;28;20207;-68
2022/05/20 01:44:04;;;;;;;0.00;0.00;;;18.70;99.90;;;;;;5042510;28;20203;-69
2022/05/20 01:46:38;;;;;;;0.00;0.00;;;18.70;99.90;;;;;;5052124;28;20194;-69
2022/05/20 01:49:19;;;;;;;0.00;0.00;;;18.70;99.90;;;;;;5050494;28;20230;-69
2022/05/20 01:51:50;;;;;;;0.00;0.00;;;18.70;99.90;;;;;;5042575;28;20203;-69
2022/05/20 01:54:24;;;;;;;0.00;0.00;;;18.70;99.90;;;;;;5049255;28;20196;-69
2022/05/20 01:56:58;;;;;;;0.00;0.00;;;18.70;99.90;;;;;;5049569;28;20268;-69
2022/05/20 01:59:29;;;;;;;0.00;0.00;;;18.70;99.90;;;;;;5046842;28;20245;-69
2022/05/20 02:02:01;;;;;;;0.00;0.00;;;18.70;99.90;;;;;;5044972;28;20220;-69
2022/05/20 02:04:33;;;;;;;0.00;0.00;;;18.70;99.90;;;;;;5049100;28;20195;-69
2022/05/20 02:07:04;;;;;;;0.00;0.00;;;18.70;99.90;;;;;;5048931;28;20662;-69
2022/05/20 02:09:36;;;;;;;0.00;0.00;;;18.70;99.90;;;;;;5048404;28;20227;-69
2022/05/20 02:12:06;;;;;;;0.00;0.00;;;18.70;99.90;;;;;;5050204;28;20199;-69
2022/05/20 02:14:36;;;;;;;0.00;0.00;;;18.70;99.90;;;;;;5048934;28;20203;-68
2022/05/20 02:17:09;;;;;;;0.00;0.00;;;18.70;99.90;;;;;;5048611;28;20244;-69
2022/05/20 02:19:40;;;;;;;0.00;0.00;;;18.70;99.90;;;;;;5047981;28;20283;-70
2022/05/20 02:22:12;;;;;;;0.00;0.00;;;18.60;99.90;;;;;;5050311;28;20653;-69
2022/05/20 02:24:41;;;;;;;0.00;0.00;;;18.60;99.90;;;;;;5047274;28;20198;-69
2022/05/20 02:27:16;;;;;;;0.00;0.00;;;18.50;99.90;;;;;;5045925;28;20196;-68
2022/05/20 02:29:48;;;;;;;0.00;0.00;;;18.50;99.90;;;;;;5047866;28;20695;-68
2022/05/20 02:32:21;;;;;;;0.00;0.00;;;18.60;99.90;;;;;;5049454;28;20200;-69
2022/05/20 02:34:50;;;;;;;0.00;0.00;;;18.60;99.90;;;;;;5044253;28;20245;-68
2022/05/20 02:37:20;;;;;;;0.00;0.00;;;18.60;99.90;;;;;;5047211;28;20203;-69
2022/05/20 02:39:48;;;;;;;0.00;0.00;;;18.60;99.90;;;;;;5049149;28;20230;-69
2022/05/20 02:42:16;;;;;;;0.00;0.00;;;18.60;99.90;;;;;;5048371;28;20196;-68
2022/05/20 02:44:44;;;;;;;0.00;0.00;;;18.60;99.90;;;;;;5050672;28;20226;-69
2022/05/20 02:47:12;;;;;;;0.00;0.00;;;18.60;99.90;;;;;;5047266;28;20211;-68
2022/05/20 02:49:39;;;;;;;0.00;0.00;;;18.60;99.90;;;;;;5081656;28;20223;-68
2022/05/20 02:52:07;;;;;;;0.00;0.00;;;18.60;99.90;;;;;;5048621;28;20207;-68
2022/05/20 02:54:35;;;;;;;0.00;0.00;;;18.60;99.90;;;;;;5044427;28;20281;-68
2022/05/20 02:57:03;;;;;;;0.00;0.00;;;18.60;99.90;;;;;;5047943;28;20191;-68
2022/05/20 03:05:01;;;;;;;0.00;0.00;;;18.50;99.90;;;;;;5045567;28;20195;-68
2022/05/20 03:07:29;;;;;;;0.00;0.00;;;18.50;99.90;;;;;;5047258;28;20217;-68
2022/05/20 03:09:55;;;;;;;0.00;0.00;;;18.40;99.90;;;;;;5046668;28;20246;-69
2022/05/20 03:12:22;;;;;;;0.00;0.00;;;18.40;99.90;;;;;;5046983;28;20214;-69
2022/05/20 03:14:51;;;;;;;0.00;0.00;;;18.40;99.90;;;;;;5046628;28;20210;-69
2022/05/20 03:17:18;;;;;;;0.00;0.00;;;18.40;99.90;;;;;;5048434;28;20671;-69
2022/05/20 03:19:45;;;;;;;0.00;0.00;;;18.30;99.90;;;;;;5046785;28;20222;-69
2022/05/20 03:22:12;;;;;;;0.00;0.00;;;18.30;99.90;;;;;;5047109;28;20249;-69
2022/05/20 03:24:39;;;;;;;0.00;0.00;;;18.30;99.90;;;;;;5047849;28;20203;-69
2022/05/20 03:27:06;;;;;;;0.00;0.00;;;18.30;99.90;;;;;;5048032;28;20202;-69
2022/05/20 03:29:33;;;;;;;0.00;0.00;;;18.30;99.90;;;;;;5046891;28;20229;-69
2022/05/20 03:32:02;;;;;;;0.00;0.00;;;18.30;99.90;;;;;;5047422;28;20207;-69
2022/05/20 03:34:29;;;;;;;0.00;0.00;;;18.30;99.90;;;;;;5047097;28;20203;-68
2022/05/20 03:36:56;;;;;;;0.00;0.00;;;18.30;99.90;;;;;;5047557;28;20203;-69
2022/05/20 03:39:25;;;;;;;0.00;0.00;;;18.30;99.90;;;;;;5047713;28;20220;-69
2022/05/20 03:41:52;;;;;;;0.00;0.00;;;18.30;99.90;;;;;;5049433;28;20196;-68
2022/05/20 03:44:20;;;;;;;0.00;0.00;;;18.30;99.90;;;;;;5044665;28;20238;-69
2022/05/20 03:46:51;;;;;;;0.00;0.00;;;18.30;99.90;;;;;;5047202;28;20199;-68
2022/05/20 03:49:20;;;;;;;0.00;0.00;;;18.40;99.90;;;;;;5046137;28;20250;-68
2022/05/20 03:51:49;;;;;;;0.00;0.00;;;18.40;99.90;;;;;;5046757;28;20581;-69
2022/05/20 03:54:19;;;;;;;0.00;0.00;;;18.40;99.90;;;;;;5046569;28;20220;-69
2022/05/20 03:56:46;;;;;;;0.00;0.00;;;18.40;99.90;;;;;;5047259;28;20196;-69
2022/05/20 03:59:13;;;;;;;0.00;0.00;;;18.50;99.90;;;;;;5047674;28;20287;-69
2022/05/20 04:01:57;;;;;;;0.00;0.00;;;18.50;99.90;;;;;;5048768;28;20202;-69
2022/05/20 04:04:27;;;;;;;0.00;0.00;;;18.60;99.90;;;;;;5047691;28;20199;-70
2022/05/20 04:06:54;;;;;;;0.00;0.00;;;18.60;99.90;;;;;;5046991;28;20195;-69
2022/05/20 04:09:21;;;;;;;0.00;0.00;;;18.60;99.90;;;;;;5050608;28;20220;-70
2022/05/20 04:11:52;;;;;;;0.00;0.00;;;18.70;99.90;;;;;;5050763;28;20223;-70
2022/05/20 04:14:19;;;;;;;0.00;0.00;;;18.70;99.90;;;;;;5083770;28;20207;-69
2022/05/20 04:16:46;;;;;;;0.00;0.00;;;18.80;99.90;;;;;;5048703;28;20196;-69
2022/05/20 04:19:13;;;;;;;0.00;0.00;;;18.90;99.90;;;;;;5050769;28;20273;-67
2022/05/20 04:21:42;;;;;;;0.00;0.00;;;18.90;99.90;;;;;;5042367;28;20191;-69
2022/05/20 04:24:09;;;;;;;0.00;0.00;;;19.00;99.90;;;;;;5046875;28;20293;-66
2022/05/20 04:26:36;;;;;;;0.00;0.00;;;19.00;99.90;;;;;;5046295;28;20214;-69
2022/05/20 04:29:03;;;;;;;0.00;0.00;;;19.00;99.90;;;;;;5048892;28;20203;-69
2022/05/20 04:31:30;;;;;;;0.00;0.00;;;19.00;99.90;;;;;;5042720;28;20240;-69
2022/05/20 04:33:57;;;;;;;0.00;0.00;;;19.10;99.90;;;;;;5046906;28;20267;-69
2022/05/20 04:36:24;;;;;;;0.00;0.00;;;19.10;99.90;;;;;;5052814;28;20183;-67
2022/05/20 04:38:53;;;;;;;0.00;0.00;;;19.20;99.90;;;;;;5045677;28;20211;-69
2022/05/20 04:46:58;;;;;;;0.00;0.00;;;19.50;99.90;;;;;;5044425;28;20206;-69
2022/05/20 04:49:26;;;;;;;0.00;0.00;;;19.70;99.90;;;;;;5045724;28;20230;-69
2022/05/20 04:51:53;;;;;;;0.00;0.00;;;19.80;99.90;;;;;;5041272;28;20864;-69
2022/05/20 04:57:08;;;;;;;0.00;0.00;;;20.20;99.90;;;;;;5045904;28;20731;-69
2022/05/20 04:59:36;;;;;;;0.00;0.00;;;20.40;99.90;;;;;;5044610;28;20238;-69
2022/05/20 05:02:04;;;;;;;0.00;0.00;;;20.50;99.90;;;;;;5043476;28;20203;-69
2022/05/20 05:04:31;;;;;;;0.00;0.00;;;20.70;99.90;;;;;;5046061;28;20256;-69
2022/05/20 05:06:58;;;;;;;0.00;0.00;;;20.90;99.90;;;;;;5046642;28;20208;-69
2022/05/20 05:09:26;;;;;;;0.00;0.00;;;21.00;99.90;;;;;;5044335;28;20218;-69
2022/05/20 05:11:53;;;;;;;0.00;0.00;;;21.20;99.90;;;;;;5045049;28;20228;-68
2022/05/20 05:14:20;;;;;;;0.00;0.00;;;21.20;99.90;;;;;;5044839;28;20207;-69
2022/05/20 05:16:47;;;;;;;0.00;0.00;;;21.30;99.90;;;;;;5033031;28;20277;-69
2022/05/20 05:19:14;;;;;;;0.00;0.00;;;21.40;99.90;;;;;;5035498;28;20262;-69
2022/05/20 05:21:41;;;;;;;0.00;0.00;;;21.60;99.90;;;;;;5036277;28;20192;-68
2022/05/20 05:24:09;;;;;;;0.00;0.00;;;21.70;99.90;;;;;;5034831;28;20228;-68
2022/05/20 05:26:40;;;;;;;0.00;0.00;;;21.80;99.90;;;;;;5045208;28;20223;-68
2022/05/20 05:29:07;;;;;;;0.00;0.00;;;21.90;99.90;;;;;;5045795;28;20219;-68
2022/05/20 05:31:34;;;;;;;0.00;0.00;;;22.00;99.90;;;;;;5044074;28;20230;-68
2022/05/20 05:34:00;;;;;;;0.00;0.00;;;22.20;99.90;;;;;;5043251;28;20200;-68
2022/05/20 05:36:28;;;;;;;0.00;0.00;;;22.30;99.90;;;;;;5042135;28;20203;-69
2022/05/20 05:38:55;;;;;;;0.00;0.00;;;22.20;99.90;;;;;;5041107;28;20204;-68
2022/05/20 05:41:22;;;;;;;0.00;0.00;;;22.30;99.90;;;;;;5046301;28;20191;-69
2022/05/20 05:43:51;;;;;;;0.00;0.00;;;22.10;99.90;;;;;;5044740;28;20207;-70
2022/05/20 05:46:18;;;;;;;0.00;0.00;;;22.00;99.90;;;;;;5045205;28;20649;-69
2022/05/20 05:48:44;;;;;;;0.00;0.00;;;22.00;99.90;;;;;;5044802;28;20196;-69
2022/05/20 05:51:12;;;;;;;0.00;0.00;;;21.90;99.90;;;;;;5041035;28;20283;-69
2022/05/20 05:53:39;;;;;;;0.00;0.00;;;22.10;99.90;;;;;;5040126;28;20235;-68
2022/05/20 05:56:09;;;;;;;0.00;0.00;;;22.20;99.90;;;;;;5042124;28;20285;-69
2022/05/20 05:58:37;;;;;;;0.00;0.00;;;22.20;99.90;;;;;;5044398;28;20204;-69
2022/05/20 06:01:06;;;;;;;0.00;0.00;;;22.30;99.90;;;;;;5045409;28;20218;-69
2022/05/20 06:03:34;;;;;;;0.00;0.00;;;22.50;99.90;;;;;;5045487;28;20216;-69
2022/05/20 06:06:02;;;;;;;0.00;0.00;;;22.70;99.90;;;;;;5041545;28;20253;-69
2022/05/20 06:08:29;;;;;;;0.00;0.00;;;22.80;99.90;;;;;;5042880;28;20191;-69
2022/05/20 06:10:55;;;;;;;0.00;0.00;;;22.90;99.90;;;;;;5041891;28;20232;-69
2022/05/20 06:13:24;;;;;;;0.00;0.00;;;23.00;99.90;;;;;;5045144;28;20250;-69
2022/05/20 06:15:55;;;;;;;0.00;0.00;;;23.10;99.90;;;;;;5044486;28;20602;-68
2022/05/20 06:18:24;;;;;;;0.00;0.00;;;23.30;99.90;;;;;;5038321;28;20230;-68
2022/05/20 06:20:51;;;;;;;0.00;0.00;;;23.40;99.90;;;;;;5036852;28;20215;-68
2022/05/20 06:23:19;;;;;;;0.00;0.00;;;23.40;99.90;;;;;;5043660;28;20200;-68
2022/05/20 06:25:46;;;;;;;0.00;0.00;;;23.40;99.90;;;;;;5041349;28;20215;-69
2022/05/20 06:28:15;;;;;;;0.00;0.00;;;23.40;99.90;;;;;;5043172;28;20196;-68
2022/05/20 06:30:43;;;;;;;0.00;0.00;;;23.30;99.90;;;;;;5045976;28;20298;-68
2022/05/20 06:33:11;;;;;;;0.00;0.00;;;23.30;99.90;;;;;;5042960;28;20203;-69
2022/05/20 06:41:10;;;;;;;0.00;0.00;;;23.30;99.90;;;;;;5036247;28;20208;-69
2022/05/20 06:43:37;;;;;;;0.00;0.00;;;23.20;99.90;;;;;;5038927;28;20321;-68
2022/05/20 06:46:05;;;;;;;0.00;0.00;;;23.10;99.90;;;;;;5035140;28;20257;-68
2022/05/20 06:48:41;;;;;;;0.00;0.00;;;22.90;99.90;;;;;;5039304;28;20207;-68
2022/05/20 06:51:11;;;;;;;0.00;0.00;;;22.60;99.90;;;;;;5036979;28;20215;-68
2022/05/20 06:53:38;;;;;;;0.00;0.00;;;22.60;99.90;;;;;;5036337;28;20227;-68
2022/05/20 06:56:06;;;;;;;0.00;0.00;;;22.40;99.90;;;;;;5042618;28;20218;-68
2022/05/20 06:58:33;;;;;;;0.00;0.00;;;22.30;99.90;;;;;;5044602;28;20191;-68
2022/05/20 07:01:00;;;;;;;0.00;0.00;;;22.30;99.90;;;;;;5031936;28;20219;-68
2022/05/20 07:03:27;;;;;;;0.00;0.00;;;22.40;99.90;;;;;;5041740;28;20199;-68
2022/05/20 07:05:54;;;;;;;0.00;0.00;;;22.40;99.90;;;;;;5039101;28;20235;-68
2022/05/20 07:08:24;;;;;;;0.00;0.00;;;22.50;99.90;;;;;;5044638;28;20217;-67
2022/05/20 07:10:51;;;;;;;0.00;0.00;;;22.40;99.90;;;;;;5041519;28;20223;-68
2022/05/20 07:13:18;;;;;;;0.00;0.00;;;22.50;99.90;;;;;;5059726;28;20257;-68
2022/05/20 07:15:45;;;;;;;0.00;0.00;;;22.70;99.90;;;;;;5043159;28;20222;-69
2022/05/20 07:18:12;;;;;;;0.00;0.00;;;22.90;99.90;;;;;;5043440;28;20205;-70
2022/05/20 07:20:39;;;;;;;0.00;0.00;;;22.90;99.90;;;;;;5043753;28;20219;-68
2022/05/20 07:23:06;;;;;;;0.00;0.00;;;23.00;99.90;;;;;;5043565;28;20310;-69
2022/05/20 07:25:36;;;;;;;0.00;0.00;;;23.10;99.90;;;;;;5046114;28;20196;-69
2022/05/20 07:28:03;;;;;;;0.00;0.00;;;23.20;99.90;;;;;;5047144;28;20673;-69
2022/05/20 07:30:30;;;;;;;0.00;0.00;;;23.30;99.90;;;;;;5044040;28;20640;-69
2022/05/20 07:32:58;;;;;;;0.00;0.00;;;23.40;99.90;;;;;;5043674;28;20215;-69
2022/05/20 07:35:24;;;;;;;0.00;0.00;;;23.60;99.90;;;;;;5042920;28;20218;-69
2022/05/20 07:37:51;;;;;;;0.00;0.00;;;23.80;99.90;;;;;;5042279;28;20268;-69
2022/05/20 07:40:19;;;;;;;0.00;0.00;;;24.00;99.90;;;;;;5044857;28;20234;-70
2022/05/20 07:42:47;;;;;;;0.00;0.00;;;24.20;99.90;;;;;;5047468;28;20576;-69
2022/05/20 07:45:15;;;;;;;0.00;0.00;;;24.20;99.90;;;;;;5047282;28;20628;-69
2022/05/20 07:47:43;;;;;;;0.00;0.00;;;24.10;99.90;;;;;;5047645;28;20203;-69
2022/05/20 07:50:11;;;;;;;0.00;0.00;;;24.00;99.90;;;;;;5046440;28;20273;-68
2022/05/20 07:55:26;;;;;;;0.00;0.00;;;23.80;99.90;;;;;;5046560;28;20718;-69
2022/05/20 07:57:55;;;;;;;0.00;0.00;;;23.70;99.90;;;;;;5045055;28;20206;-70
2022/05/20 08:00:23;;;;;;;0.00;0.00;;;23.60;99.90;;;;;;5046409;28;20312;-70
2022/05/20 08:02:53;;;;;;;0.00;0.00;;;23.60;99.90;;;;;;5046422;28;20211;-69
2022/05/20 08:05:21;;;;;;;0.00;0.00;;;23.70;99.90;;;;;;5047589;28;20203;-69
2022/05/20 08:07:50;;;;;;;0.00;0.00;;;23.70;99.90;;;;;;5047295;28;20241;-69
2022/05/20 08:10:19;;;;;;;0.00;0.00;;;23.80;99.90;;;;;;5046131;28;20223;-70
2022/05/20 08:12:46;;;;;;;0.00;0.00;;;23.90;99.90;;;;;;5045171;28;20302;-69
2022/05/20 08:15:16;;;;;;;0.00;0.00;;;24.00;99.90;;;;;;5078506;28;20199;-69
2022/05/20 08:17:44;;;;;;;0.00;0.00;;;24.10;99.90;;;;;;5043284;28;20253;-69
2022/05/20 08:20:16;;;;;;;0.00;0.00;;;24.10;99.90;;;;;;5046711;28;20242;-69
2022/05/20 08:22:43;;;;;;;0.00;0.00;;;24.10;99.90;;;;;;5042617;28;20298;-69
2022/05/20 08:25:11;;;;;;;0.00;0.00;;;23.90;99.90;;;;;;5044767;28;20195;-69
2022/05/20 08:27:38;;;;;;;0.00;0.00;;;24.00;99.90;;;;;;5046295;28;20195;-70
2022/05/20 08:30:09;;;;;;;0.00;0.00;;;24.10;99.90;;;;;;5047003;28;20239;-69
2022/05/20 08:32:37;;;;;;;0.00;0.00;;;24.20;99.90;;;;;;5048094;28;20215;-68
2022/05/20 08:35:05;;;;;;;0.00;0.00;;;24.30;99.90;;;;;;5044482;28;20203;-69
2022/05/20 08:37:33;;;;;;;0.00;0.00;;;24.60;99.90;;;;;;5047718;28;20241;-69
2022/05/20 08:40:01;;;;;;;0.00;0.00;;;24.60;99.90;;;;;;5046812;28;20218;-68
2022/05/20 08:42:31;;;;;;;0.00;0.00;;;24.70;99.90;;;;;;5046658;28;20199;-68
2022/05/20 08:44:59;;;;;;;0.00;0.00;;;24.80;99.90;;;;;;5046732;28;20732;-71
2022/05/20 08:47:32;;;;;;;0.00;0.00;;;25.00;99.90;;;;;;5043349;28;20214;-68
2022/05/20 08:50:02;;;;;;;0.00;0.00;;;25.20;99.90;;;;;;5046450;28;20216;-69
2022/05/20 08:52:29;;;;;;;0.00;0.00;;;25.20;99.90;;;;;;5044636;28;20303;-70
2022/05/20 08:54:56;;;;;;;0.00;0.00;;;25.40;99.90;;;;;;5046072;28;20191;-69
2022/05/20 08:57:27;;;;;;;0.00;0.00;;;25.40;99.90;;;;;;5044580;28;20294;-69
2022/05/20 08:59:54;;;;;;;0.00;0.00;;;25.40;99.90;;;;;;5045945;28;20231;-70
2022/05/20 09:02:21;;;;;;;0.00;0.00;;;25.30;99.90;;;;;;5045479;28;20209;-69
2022/05/20 09:04:49;;;;;;;0.00;0.00;;;25.40;99.90;;;;;;5046170;28;20199;-69
2022/05/20 09:07:18;;;;;;;0.00;0.00;;;25.50;99.90;;;;;;5044565;28;20218;-69
2022/05/20 09:09:48;;;;;;;0.00;0.00;;;25.50;99.90;;;;;;5044705;28;20232;-68
2022/05/20 09:12:29;;;;;;;0.00;0.00;;;25.60;99.90;;;;;;5045559;28;20250;-69
2022/05/20 09:17:49;;;;;;;0.00;0.00;;;25.80;99.90;;;;;;5043130;28;20207;-69
2022/05/20 09:20:18;;;;;;;0.00;0.00;;;25.90;99.90;;;;;;5046777;28;20219;-69
2022/05/20 09:22:58;;;;;;;0.00;0.00;;;26.10;99.90;;;;;;5045379;28;20203;-69
2022/05/20 09:25:28;;;;;;;0.00;0.00;;;26.20;99.90;;;;;;5045875;28;20211;-69
2022/05/20 09:28:17;;;;;;;0.00;0.00;;;26.20;99.90;;;;;;5045463;28;20214;-69
2022/05/20 09:30:48;;;;;;;0.00;0.00;;;26.40;99.90;;;;;;5041902;28;20231;-70
2022/05/20 09:33:19;;;;;;;0.00;0.00;;;26.50;99.90;;;;;;5046872;28;20657;-69
2022/05/20 09:35:51;;;;;;;0.00;0.00;;;26.40;99.90;;;;;;5044903;28;20311;-69
2022/05/20 09:38:34;;;;;;;0.00;0.00;;;26.30;99.90;;;;;;5045153;28;20231;-70
2022/05/20 09:41:10;;;;;;;0.00;0.00;;;26.30;99.90;;;;;;5041462;28;20223;-69
2022/05/20 09:43:40;;;;;;;0.00;0.00;;;26.20;99.90;;;;;;5043295;28;20191;-69
2022/05/20 09:46:27;;;;;;;0.00;0.00;;;26.10;99.90;;;;;;5045123;28;20249;-69
2022/05/20 09:49:00;;;;;;;0.00;0.00;;;26.20;99.90;;;;;;5044453;28;20203;-69
2022/05/20 09:51:33;;;;;;;0.00;0.00;;;26.30;99.90;;;;;;5045382;28;20202;-69
2022/05/20 09:54:13;;;;;;;0.00;0.00;;;26.40;99.90;;;;;;5044336;28;20191;-68
2022/05/20 09:56:42;;;;;;;0.00;0.00;;;26.40;99.90;;;;;;5060104;28;20206;-68
2022/05/20 09:59:22;;;;;;;0.00;0.00;;;26.40;99.90;;;;;;5043564;28;20215;-68
2022/05/20 10:01:57;;;;;;;0.00;0.00;;;26.50;99.90;;;;;;5074885;28;20207;-68
2022/05/20 10:04:33;;;;;;;0.00;0.00;;;26.50;99.90;;;;;;5043862;28;20216;-68
2022/05/20 10:07:01;;;;;;;0.00;0.00;;;26.50;99.90;;;;;;5045548;28;20239;-68
2022/05/20 10:09:37;;;;;;;0.00;0.00;;;26.50;99.90;;;;;;5046492;28;20238;-68
2022/05/20 10:12:11;;;;;;;0.00;0.00;;;26.60;99.90;;;;;;5041585;28;20685;-68
2022/05/20 10:14:44;;;;;;;0.00;0.00;;;26.60;99.90;;;;;;5042132;28;20203;-68
2022/05/20 10:17:20;;;;;;;0.00;0.00;;;26.70;99.90;;;;;;5035637;28;20214;-68
2022/05/20 10:19:55;;;;;;;0.00;0.00;;;26.70;99.90;;;;;;5051020;28;20238;-67
2022/05/20 10:22:27;;;;;;;0.00;0.00;;;26.70;99.90;;;;;;5040717;28;20238;-67
2022/05/20 10:25:02;;;;;;;0.00;0.00;;;26.70;99.90;;;;;;5041406;28;20269;-67
2022/05/20 10:27:36;;;;;;;0.00;0.00;;;26.70;99.90;;;;;;5042031;28;20203;-67
2022/05/20 10:33:00;;;;;;;0.00;0.00;;;26.70;99.90;;;;;;5042832;28;20227;-67
2022/05/20 10:35:31;;;;;;;0.00;0.00;;;26.80;99.90;;;;;;5045186;28;20204;-67
2022/05/20 10:38:13;;;;;;;0.00;0.00;;;26.90;99.90;;;;;;5042718;28;20199;-68
2022/05/20 10:40:51;;;;;;;0.00;0.00;;;26.90;99.90;;;;;;5043200;28;20227;-67
2022/05/20 10:48:34;;;;;;;0.00;0.00;;;26.80;99.90;;;;;;5042634;28;20227;-67
2022/05/20 10:49:29;;;;;;;0.00;0.00;;;26.90;99.90;;;;;;5055756;28;20224;-68
2022/05/20 10:52:23;;;;;;;0.00;0.00;;;27.00;99.90;;;;;;5044798;28;20209;-68
2022/05/20 10:55:19;;;;;;;0.00;0.00;;;27.10;99.90;;;;;;5040450;28;20226;-68
2022/05/20 10:58:26;;;;;;;0.00;0.00;;;27.10;99.90;;;;;;5076692;28;20278;-68
2022/05/20 11:00:55;;;;;;;0.00;0.00;;;27.10;99.90;;;;;;5040635;28;20302;-68
2022/05/20 11:03:55;;;;;;;0.00;0.00;;;27.00;99.90;;;;;;5043149;28;20196;-68
2022/05/20 11:06:47;;;;;;;0.00;0.00;;;27.10;99.90;;;;;;5043046;28;20210;-68
2022/05/20 11:09:21;;;;;;;0.00;0.00;;;27.20;99.90;;;;;;5036267;28;20325;-68
2022/05/20 11:11:57;;;;;;;0.00;0.00;;;27.30;99.90;;;;;;5043741;28;20612;-68
2022/05/20 11:14:57;;;;;;;0.00;0.00;;;27.40;99.90;;;;;;5044057;28;20209;-69
2022/05/20 11:18:03;;;;;;;0.00;0.00;;;27.40;99.90;;;;;;5048058;28;20219;-69
2022/05/20 11:21:05;;;;;;;0.00;0.00;;;27.50;99.90;;;;;;5006400;28;20298;-68
2022/05/20 11:23:50;;;;;;;0.00;0.00;;;27.60;99.90;;;;;;5047629;28;20198;-69
2022/05/20 11:26:39;;;;;;;0.00;0.00;;;27.60;99.90;;;;;;5047577;28;20207;-68
2022/05/20 11:29:21;;;;;;;0.00;0.00;;;27.60;99.90;;;;;;5048109;28;20211;-68
2022/05/20 11:31:49;;;;;;;0.00;0.00;;;27.60;99.90;;;;;;5042582;28;20692;-69
2022/05/20 11:34:48;;;;;;;0.00;0.00;;;27.60;99.90;;;;;;5046911;28;20218;-68
2022/05/20 11:37:30;;;;;;;0.00;0.00;;;27.70;99.90;;;;;;5026383;28;20214;-67
2022/05/20 11:40:12;;;;;;;0.00;0.00;;;27.60;99.90;;;;;;5046504;28;20223;-68
2022/05/20 11:42:58;;;;;;;0.00;0.00;;;27.50;99.90;;;;;;5041080;28;20180;-68
2022/05/20 11:45:34;;;;;;;0.00;0.00;;;27.40;99.90;;;;;;5045284;28;20207;-67
2022/05/20 11:48:34;;;;;;;0.00;0.00;;;27.30;99.90;;;;;;5049304;28;20187;-67
2022/05/20 11:51:18;;;;;;;0.00;0.00;;;27.30;99.90;;;;;;5029752;28;20700;-67
2022/05/20 11:53:50;;;;;;;0.00;0.00;;;27.30;99.90;;;;;;5039172;28;20231;-68
2022/05/20 11:56:22;;;;;;;0.00;0.00;;;27.20;99.90;;;;;;5045060;28;20204;-68
2022/05/20 11:58:55;;;;;;;0.00;0.00;;;27.00;99.90;;;;;;5042775;28;20203;-68
2022/05/20 12:01:23;;;;;;;0.00;0.00;;;26.90;99.90;;;;;;5046019;28;20195;-68
2022/05/20 12:04:09;;;;;;;0.00;0.00;;;26.80;99.90;;;;;;5046243;28;20207;-68
2022/05/20 12:06:43;;;;;;;0.00;0.00;;;26.80;99.90;;;;;;5047118;28;20203;-68
2022/05/20 12:09:32;;;;;;;0.00;0.00;;;26.90;99.90;;;;;;5046724;28;20215;-68
2022/05/20 12:12:16;;;;;;;0.00;0.00;;;27.10;99.90;;;;;;5038460;28;20207;-68
2022/05/20 12:15:43;;;;;;;0.00;0.00;;;27.30;99.90;;;;;;5042828;28;20214;-68
2022/05/20 12:24:32;;;;;;;0.00;0.00;;;27.10;99.90;;;;;;4977662;28;20225;-68
2022/05/20 12:26:59;;;;;;;0.00;0.00;;;26.90;99.90;;;;;;5045290;28;20299;-68
2022/05/20 12:30:06;;;;;;;0.00;0.00;;;26.70;99.90;;;;;;5046257;28;20207;-68
2022/05/20 12:32:51;;;;;;;0.00;0.00;;;26.50;99.90;;;;;;5047714;28;20199;-68
2022/05/20 12:35:32;;;;;;;0.00;0.00;;;26.40;99.90;;;;;;5045114;28;20208;-68
2022/05/20 12:38:15;;;;;;;0.00;0.00;;;26.20;99.90;;;;;;5044709;28;20294;-68
2022/05/20 12:41:01;;;;;;;0.00;0.00;;;26.40;99.90;;;;;;5037424;28;20215;-68
2022/05/20 12:44:01;;;;;;;0.00;0.00;;;26.50;99.90;;;;;;5072173;28;20202;-66
2022/05/20 12:46:44;;;;;;;0.00;0.00;;;26.50;99.90;;;;;;5041297;28;20199;-68
2022/05/20 12:49:12;;;;;;;0.00;0.00;;;26.60;99.90;;;;;;5038469;28;20230;-69
2022/05/20 12:51:46;;;;;;;0.00;0.00;;;26.70;99.90;;;;;;5050251;28;20199;-68
2022/05/20 12:54:18;;;;;;;0.00;0.00;;;26.60;99.90;;;;;;5041617;28;20277;-68
2022/05/20 12:56:48;;;;;;;0.00;0.00;;;26.70;99.90;;;;;;5042812;28;20233;-68
2022/05/20 12:59:18;;;;;;;0.00;0.00;;;26.60;99.90;;;;;;5042093;28;20241;-68
2022/05/20 13:01:51;;;;;;;0.00;0.00;;;26.60;99.90;;;;;;5043233;28;20250;-68
2022/05/20 13:04:21;;;;;;;0.00;0.00;;;26.70;99.90;;;;;;5047135;28;20214;-68
2022/05/20 13:06:49;;;;;;;0.00;0.00;;;26.50;99.90;;;;;;5039747;28;20275;-68
2022/05/20 13:09:24;;;;;;;0.00;0.00;;;26.60;99.90;;;;;;5045579;28;20810;-69
2022/05/20 13:11:52;;;;;;;0.00;0.00;;;26.60;99.90;;;;;;5040382;28;20281;-68
2022/05/20 13:14:22;;;;;;;0.00;0.00;;;26.70;99.90;;;;;;5043439;28;20210;-69
2022/05/20 13:16:53;;;;;;;0.00;0.00;;;26.80;99.90;;;;;;5038718;28;20223;-69
2022/05/20 13:19:29;;;;;;;0.00;0.00;;;26.90;99.90;;;;;;5043924;28;20306;-69
2022/05/20 13:22:03;;;;;;;0.00;0.00;;;27.00;99.90;;;;;;5043946;28;20595;-69
2022/05/20 13:24:33;;;;;;;0.00;0.00;;;27.00;99.90;;;;;;5041191;28;20227;-69
2022/05/20 13:27:08;;;;;;;0.00;0.00;;;27.00;99.90;;;;;;5041526;28;20290;-68
2022/05/20 13:29:36;;;;;;;0.00;0.00;;;27.10;99.90;;;;;;5044527;28;20226;-68
2022/05/20 13:32:19;;;;;;;0.00;0.00;;;27.10;99.90;;;;;;5041303;28;20268;-68
2022/05/20 13:34:48;;;;;;;0.00;0.00;;;27.10;99.90;;;;;;5039893;28;20250;-68
2022/05/20 13:37:20;;;;;;;0.00;0.00;;;27.20;99.90;;;;;;5042492;28;20231;-68
2022/05/20 13:39:47;;;;;;;0.00;0.00;;;27.10;99.90;;;;;;5046141;28;20219;-68
2022/05/20 13:42:17;;;;;;;0.00;0.00;;;27.10;99.90;;;;;;5044472;28;20668;-68
2022/05/20 13:44:45;;;;;;;0.00;0.00;;;27.10;99.90;;;;;;5043750;28;20249;-68
2022/05/20 13:50:00;;;;;;;0.00;0.00;;;27.10;99.90;;;;;;5039799;28;20211;-69